Time;durP1;ratioP1;P1;durP2;ratioP2;P2;SDS_P1;SDS_P2;PMS_P1;PMS_P2;Temp;Humidity;BMP_temperature;BMP_pressure;BME280_temperature;BME280_humidity;BME280_pressure;Samples;Min_cycle;Max_cycle;Signal;HPM_P1;HPM_P2
2021/04/22 00:00:55;;;;;;;23.85;7.60;;;;;;;6.99;76.14;100912.00;1768172;81;20999;-40
2021/04/22 00:03:23;;;;;;;25.30;7.50;;;;;;;6.99;76.24;100915.02;1768205;80;21253;-40
2021/04/22 00:05:50;;;;;;;44.27;8.55;;;;;;;6.98;76.39;100917.17;1702124;84;21036;-41
2021/04/22 00:08:18;;;;;;;37.25;7.83;;;;;;;6.96;76.38;100916.30;1682051;84;21174;-40
2021/04/22 00:10:49;;;;;;;21.77;7.60;;;;;;;6.96;76.32;100920.16;1768109;81;21007;-40
2021/04/22 00:13:20;;;;;;;14.25;7.20;;;;;;;6.98;76.50;100918.45;1768217;81;20979;-41
2021/04/22 00:15:49;;;;;;;22.58;8.50;;;;;;;6.95;76.53;100918.00;1702106;84;21979;-41
2021/04/22 00:18:17;;;;;;;15.58;7.72;;;;;;;6.91;76.70;100917.56;1768123;80;20971;-40
2021/04/22 00:20:45;;;;;;;8.65;6.92;;;;;;;6.85;76.65;100915.81;1768149;81;21058;-41
2021/04/22 00:23:15;;;;;;;12.78;8.50;;;;;;;6.78;76.82;100921.80;1768116;81;21063;-41
2021/04/22 00:25:44;;;;;;;15.78;8.55;;;;;;;6.71;76.93;100925.20;1702204;84;21490;-40
2021/04/22 00:28:13;;;;;;;12.45;8.68;;;;;;;6.61;77.14;100925.13;1702226;84;21358;-42
2021/04/22 00:30:43;;;;;;;15.75;9.15;;;;;;;6.54;77.30;100928.53;1768098;81;21003;-41
2021/04/22 00:33:16;;;;;;;9.95;8.08;;;;;;;6.45;77.40;100931.05;1702224;83;21829;-40
2021/04/22 00:35:43;;;;;;;23.62;11.33;;;;;;;6.37;77.67;100926.27;1702115;84;20909;-42
2021/04/22 00:38:13;;;;;;;20.17;11.15;;;;;;;6.27;77.99;100924.93;1768282;81;20944;-40
2021/04/22 00:40:41;;;;;;;15.25;9.33;;;;;;;6.21;78.26;100930.45;1702324;84;21492;-41
2021/04/22 00:43:13;;;;;;;47.53;9.48;;;;;;;6.13;78.52;100930.39;1767984;81;20908;-42
2021/04/22 00:45:43;;;;;;;20.65;8.68;;;;;;;6.00;78.77;100928.98;1768208;81;21110;-41
2021/04/22 00:48:13;;;;;;;27.40;10.05;;;;;;;6.00;78.77;100928.98;1768155;81;21592;-42
2021/04/22 00:50:43;;;;;;;16.93;9.30;;;;;;;5.95;79.23;100934.52;1768144;81;21123;-41
2021/04/22 00:53:11;;;;;;;17.55;8.33;;;;;;;5.89;79.59;100946.01;1702104;84;21378;-42
2021/04/22 00:55:39;;;;;;;34.30;9.40;;;;;;;5.83;79.82;100948.53;1767996;81;20999;-40
2021/04/22 00:58:07;;;;;;;35.08;10.58;;;;;;;5.81;80.12;100938.67;1702061;84;21004;-41
2021/04/22 01:00:43;;;;;;;19.70;9.05;;;;;;;5.88;80.27;100943.00;1768105;81;21037;-41
2021/04/22 01:03:11;;;;;;;12.45;8.30;;;;;;;5.83;80.30;100937.84;1702134;84;21004;-41
2021/04/22 01:05:48;;;;;;;18.75;9.78;;;;;;;5.82;80.49;100947.69;1768208;81;21568;-48
2021/04/22 01:08:16;;;;;;;14.28;8.98;;;;;;;5.79;80.72;100942.93;1702175;83;20999;-42
2021/04/22 01:10:45;;;;;;;16.77;8.63;;;;;;;5.77;80.84;100947.20;1768066;81;21038;-41
2021/04/22 01:13:13;;;;;;;9.33;7.35;;;;;;;5.75;81.08;100945.88;1768049;81;21039;-41
2021/04/22 01:15:42;;;;;;;31.25;8.10;;;;;;;5.77;81.20;100949.33;1768156;81;20932;-41
2021/04/22 01:18:10;;;;;;;56.48;8.75;;;;;;;5.78;81.33;100945.06;1772537;80;21260;-42
2021/04/22 01:20:47;;;;;;;65.55;10.18;;;;;;;5.80;81.34;100947.22;1709935;84;21015;-41
2021/04/22 01:23:15;;;;;;;33.38;9.25;;;;;;;5.83;81.51;100948.53;1776495;80;21659;-40
2021/04/22 01:25:47;;;;;;;47.38;10.95;;;;;;;5.81;81.51;100950.23;1776250;80;20912;-41
2021/04/22 01:28:16;;;;;;;46.60;9.05;;;;;;;5.84;81.54;100949.84;1709975;84;21600;-41
2021/04/22 01:30:50;;;;;;;54.40;9.28;;;;;;;5.88;81.43;100954.56;1776299;80;21365;-42
2021/04/22 01:33:22;;;;;;;36.28;8.65;;;;;;;5.85;81.35;100951.56;1776465;80;20964;-41
2021/04/22 01:35:53;;;;;;;38.70;8.68;;;;;;;5.70;81.34;100949.72;1709897;84;21015;-40
2021/04/22 01:38:21;;;;;;;41.73;8.95;;;;;;;5.69;81.78;100950.56;1709992;84;21580;-41
2021/04/22 01:40:48;;;;;;;28.17;7.58;;;;;;;5.69;81.78;100950.56;1776311;80;21160;-41
2021/04/22 01:43:18;;;;;;;31.62;8.58;;;;;;;5.66;81.86;100949.22;1776297;80;21579;-40
2021/04/22 01:45:45;;;;;;;23.42;8.13;;;;;;;5.63;82.17;100950.48;1776167;80;21051;-42
2021/04/22 01:48:14;;;;;;;28.90;9.80;;;;;;;5.60;82.36;100949.17;1709930;84;21082;-41
2021/04/22 01:50:42;;;;;;;35.88;10.45;;;;;;;5.58;82.50;100955.59;1709948;84;21059;-42
2021/04/22 01:53:10;;;;;;;14.30;7.53;;;;;;;5.59;82.56;100958.59;1776347;80;21086;-40
2021/04/22 01:55:40;;;;;;;24.47;7.90;;;;;;;5.57;82.81;100960.70;1776298;80;21204;-40
2021/04/22 01:58:10;;;;;;;39.10;9.13;;;;;;;5.56;82.78;100961.55;1709885;84;21070;-42
2021/04/22 02:00:40;;;;;;;35.85;9.48;;;;;;;5.52;82.97;100964.49;1709879;84;21003;-41
2021/04/22 02:03:08;;;;;;;31.33;8.93;;;;;;;5.52;83.18;100961.08;1709866;84;21106;-42
2021/04/22 02:05:38;;;;;;;37.15;8.73;;;;;;;5.51;83.09;100964.50;1776380;80;21000;-41
2021/04/22 02:08:07;;;;;;;39.38;9.45;;;;;;;5.50;83.17;100965.34;1776260;80;21374;-41
2021/04/22 02:10:37;;;;;;;39.98;8.38;;;;;;;5.50;83.45;100968.75;1709869;84;20976;-41
2021/04/22 02:13:05;;;;;;;45.98;9.55;;;;;;;5.49;83.44;100965.75;1710032;84;21011;-41
2021/04/22 02:15:33;;;;;;;25.50;8.10;;;;;;;5.47;83.60;100966.16;1776317;80;21086;-40
2021/04/22 02:18:01;;;;;;;50.45;9.83;;;;;;;5.49;83.57;100969.60;1709881;83;21031;-41
2021/04/22 02:20:29;;;;;;;51.35;9.10;;;;;;;5.50;83.78;100973.89;1776249;80;21372;-42
2021/04/22 02:22:56;;;;;;;45.23;9.20;;;;;;;5.50;83.78;100973.89;1709828;84;21015;-41
2021/04/22 02:25:27;;;;;;;35.28;10.20;;;;;;;5.45;83.64;100971.70;1776282;80;20988;-41
2021/04/22 02:27:54;;;;;;;26.30;8.43;;;;;;;5.38;83.64;100973.33;1709933;84;21031;-41
2021/04/22 02:30:27;;;;;;;12.43;6.80;;;;;;;5.31;83.71;100981.81;1745744;80;20963;-41
2021/04/22 02:33:53;;;;;;;24.95;9.00;;;;;;;5.22;83.87;100983.84;1776933;79;23230;-40
2021/04/22 02:36:20;;;;;;;28.10;8.25;;;;;;;5.08;84.16;100982.39;1749380;82;20947;-41
2021/04/22 02:38:48;;;;;;;29.75;8.98;;;;;;;5.03;84.48;100994.31;1749405;82;21389;-41
2021/04/22 02:41:16;;;;;;;14.70;8.18;;;;;;;4.97;84.67;100989.95;1749351;82;21026;-41
2021/04/22 02:43:45;;;;;;;25.27;8.58;;;;;;;4.92;84.67;100994.57;1749537;80;21129;-40
2021/04/22 02:46:13;;;;;;;25.82;8.10;;;;;;;4.83;84.76;100996.18;1749497;82;21015;-41
2021/04/22 02:48:43;;;;;;;17.42;8.95;;;;;;;4.80;85.07;100997.83;1749445;80;20994;-41
2021/04/22 02:51:11;;;;;;;31.75;9.25;;;;;;;4.67;85.06;101001.52;1749379;81;21375;-42
2021/04/22 02:53:40;;;;;;;69.12;12.40;;;;;;;4.67;85.06;101001.52;1749331;81;21010;-41
2021/04/22 02:56:08;;;;;;;137.37;20.43;;;;;;;4.64;85.38;101007.01;1749394;82;21121;-41
2021/04/22 02:58:35;;;;;;;147.68;16.87;;;;;;;4.59;85.58;100994.98;1749390;82;21050;-42
2021/04/22 03:01:03;;;;;;;131.03;18.60;;;;;;;4.57;85.86;101011.20;1749357;80;21603;-41
2021/04/22 03:03:30;;;;;;;150.35;18.55;;;;;;;4.53;86.20;101012.84;1731295;82;21335;-40
2021/04/22 03:05:58;;;;;;;204.47;20.45;;;;;;;4.44;86.43;101020.41;1719549;83;21030;-41
2021/04/22 03:08:26;;;;;;;169.70;19.55;;;;;;;4.44;86.43;101020.41;1719568;83;21030;-42
2021/04/22 03:10:55;;;;;;;224.25;22.37;;;;;;;4.42;86.73;101025.90;1689816;83;21011;-42
2021/04/22 03:13:22;;;;;;;136.25;16.80;;;;;;;4.38;87.14;101025.41;1719554;83;21018;-42
2021/04/22 03:15:50;;;;;;;25.72;8.90;;;;;;;4.40;87.61;101025.02;1719517;83;21214;-41
2021/04/22 03:18:18;;;;;;;14.47;8.05;;;;;;;4.47;88.17;101028.14;1719499;83;21055;-42
2021/04/22 03:20:45;;;;;;;10.93;7.70;;;;;;;4.63;88.12;101025.39;1719536;83;21022;-41
2021/04/22 03:23:13;;;;;;;10.60;8.28;;;;;;;4.75;88.08;101027.28;1719475;82;21050;-41
2021/04/22 03:25:41;;;;;;;14.47;7.40;;;;;;;4.91;87.92;101024.92;1719598;82;20995;-41
2021/04/22 03:28:08;;;;;;;12.55;7.45;;;;;;;4.98;87.70;101029.32;1719527;83;21149;-42
2021/04/22 03:30:36;;;;;;;8.50;7.67;;;;;;;5.03;87.56;101033.65;1719451;82;21002;-42
2021/04/22 03:33:04;;;;;;;10.85;7.42;;;;;;;5.08;87.47;101032.44;1719883;83;21006;-42
2021/04/22 03:35:33;;;;;;;16.87;7.55;;;;;;;5.29;87.69;101034.85;1720239;83;21384;-42
2021/04/22 03:38:01;;;;;;;14.28;7.58;;;;;;;5.29;87.69;101034.85;1720285;83;20947;-41
2021/04/22 03:40:28;;;;;;;27.80;8.03;;;;;;;5.39;87.11;101037.96;1720282;83;21203;-43
2021/04/22 03:42:57;;;;;;;31.65;7.62;;;;;;;5.53;86.79;101043.27;1720196;83;21014;-42
2021/04/22 03:45:25;;;;;;;17.00;7.05;;;;;;;5.67;86.44;101034.87;1719694;83;21559;-42
2021/04/22 03:47:52;;;;;;;11.70;7.28;;;;;;;5.81;85.87;101044.01;1719752;83;21148;-43
2021/04/22 03:50:20;;;;;;;10.15;8.95;;;;;;;5.99;85.44;101044.61;1719916;83;21591;-42
2021/04/22 03:52:48;;;;;;;7.70;7.00;;;;;;;6.15;84.96;101044.36;1719779;83;21420;-43
2021/04/22 03:55:17;;;;;;;17.82;6.95;;;;;;;6.30;84.46;101047.50;1719706;83;20999;-42
2021/04/22 03:57:46;;;;;;;14.23;6.83;;;;;;;6.46;84.16;101052.38;1719746;83;21623;-41
2021/04/22 04:00:16;;;;;;;11.05;7.10;;;;;;;6.63;83.64;101059.34;1719771;83;20974;-43
2021/04/22 04:02:45;;;;;;;9.35;5.97;;;;;;;6.80;82.98;101054.31;1719746;82;21076;-41
2021/04/22 04:05:13;;;;;;;14.70;5.83;;;;;;;6.99;82.36;101055.31;1719828;83;21384;-41
2021/04/22 04:07:40;;;;;;;9.00;6.00;;;;;;;7.18;81.72;101059.69;1719676;83;21030;-41
2021/04/22 04:10:09;;;;;;;9.98;6.42;;;;;;;7.41;81.01;101061.52;1719703;83;20963;-42
2021/04/22 04:12:37;;;;;;;14.00;6.00;;;;;;;7.62;80.17;101060.77;1719688;83;20975;-40
2021/04/22 04:15:07;;;;;;;10.63;6.12;;;;;;;7.80;79.24;101060.37;1693413;83;20950;-40
2021/04/22 04:17:35;;;;;;;19.98;6.45;;;;;;;8.00;78.69;101064.30;1719869;83;22210;-39
2021/04/22 04:20:07;;;;;;;8.10;6.00;;;;;;;8.23;77.99;101066.06;1719737;83;20967;-40
2021/04/22 04:22:34;;;;;;;43.48;7.47;;;;;;;8.46;76.87;101067.77;1719792;83;21125;-41
2021/04/22 04:25:04;;;;;;;84.85;8.58;;;;;;;8.62;75.60;101072.55;1719723;83;21070;-42
2021/04/22 04:27:32;;;;;;;38.85;7.35;;;;;;;8.71;75.14;101075.11;1719769;83;21019;-40
2021/04/22 04:29:59;;;;;;;37.30;7.00;;;;;;;8.82;74.27;101076.39;1719735;83;21183;-41
2021/04/22 04:32:27;;;;;;;36.75;6.83;;;;;;;8.89;73.38;101075.52;1719574;83;21003;-41
2021/04/22 04:34:54;;;;;;;9.45;5.78;;;;;;;8.94;72.71;101079.81;1719712;83;21062;-41
2021/04/22 04:37:22;;;;;;;5.40;4.90;;;;;;;8.98;72.53;101080.26;1719718;83;21034;-42
2021/04/22 04:39:50;;;;;;;8.10;5.22;;;;;;;9.06;72.21;101087.10;1719802;83;21022;-41
2021/04/22 04:42:18;;;;;;;7.53;5.10;;;;;;;9.15;72.14;101082.34;1719797;83;22050;-41
2021/04/22 04:44:46;;;;;;;5.85;5.30;;;;;;;9.26;72.08;101088.78;1719727;83;21029;-41
2021/04/22 04:47:14;;;;;;;5.97;5.42;;;;;;;9.39;71.72;101094.77;1719724;83;21002;-41
2021/04/22 04:49:41;;;;;;;6.08;5.47;;;;;;;9.48;71.71;101092.59;1719710;83;20967;-42
2021/04/22 04:52:09;;;;;;;5.85;5.33;;;;;;;9.61;70.87;101095.57;1719678;83;21121;-41
2021/04/22 04:54:37;;;;;;;6.08;5.58;;;;;;;9.67;69.68;101089.49;1719829;83;21366;-42
2021/04/22 04:57:08;;;;;;;7.85;5.37;;;;;;;9.73;69.88;101089.48;1719603;83;21010;-41
2021/04/22 04:59:36;;;;;;;9.53;5.35;;;;;;;9.85;69.87;101087.69;1719754;83;21023;-42
2021/04/22 05:02:04;;;;;;;8.13;5.35;;;;;;;9.95;69.35;101090.64;1719644;83;20986;-43
2021/04/22 05:04:32;;;;;;;8.55;5.20;;;;;;;10.06;69.47;101090.16;1719702;83;21086;-41
2021/04/22 05:07:00;;;;;;;9.03;5.90;;;;;;;10.14;69.05;101091.83;1719744;82;21206;-42
2021/04/22 05:09:28;;;;;;;10.88;6.03;;;;;;;10.27;69.00;101101.66;1719717;83;21078;-42
2021/04/22 05:11:55;;;;;;;5.70;5.17;;;;;;;10.42;68.22;101104.61;1719637;83;21102;-42
2021/04/22 05:14:23;;;;;;;8.60;5.85;;;;;;;10.45;67.37;101102.87;1719715;83;21061;-42
2021/04/22 05:16:50;;;;;;;5.87;5.22;;;;;;;10.42;66.94;101099.01;1719728;83;21269;-43
2021/04/22 05:19:19;;;;;;;5.28;4.83;;;;;;;10.49;66.99;101102.42;1719674;83;21427;-41
2021/04/22 05:21:47;;;;;;;14.07;6.05;;;;;;;10.59;67.09;101105.34;1719652;83;21030;-41
2021/04/22 05:24:15;;;;;;;10.72;5.62;;;;;;;10.67;66.68;101102.70;1719679;83;21054;-40
2021/04/22 05:26:43;;;;;;;6.20;5.08;;;;;;;10.72;66.77;101105.22;1719680;83;21049;-41
2021/04/22 05:29:10;;;;;;;12.55;5.25;;;;;;;10.78;66.27;101105.20;1719763;83;20971;-42
2021/04/22 05:31:39;;;;;;;5.67;5.08;;;;;;;10.81;66.30;101110.34;1719688;83;21348;-41
2021/04/22 05:34:07;;;;;;;10.08;5.70;;;;;;;10.83;66.23;101115.07;1719531;83;21019;-41
2021/04/22 05:36:34;;;;;;;8.33;5.80;;;;;;;10.92;66.90;101116.72;1719646;83;20983;-41
2021/04/22 05:39:04;;;;;;;5.33;4.83;;;;;;;11.03;66.63;101112.28;1719650;83;21055;-42
2021/04/22 05:41:33;;;;;;;8.48;5.12;;;;;;;11.10;66.55;101109.20;1719683;83;20951;-41
2021/04/22 05:44:02;;;;;;;6.83;4.97;;;;;;;11.19;65.79;101112.98;1719679;83;21207;-41
2021/04/22 05:46:30;;;;;;;6.25;5.15;;;;;;;11.26;65.09;101111.64;1719591;82;20959;-41
2021/04/22 05:48:58;;;;;;;7.53;5.70;;;;;;;11.26;65.39;101114.23;1719653;83;20951;-42
2021/04/22 05:51:26;;;;;;;5.33;4.83;;;;;;;11.25;64.11;101107.34;1719646;83;21069;-41
2021/04/22 05:53:54;;;;;;;7.00;5.33;;;;;;;11.20;64.56;101105.63;1719699;83;20907;-42
2021/04/22 05:56:21;;;;;;;5.90;5.22;;;;;;;11.18;65.00;101107.83;1719768;82;21213;-43
2021/04/22 05:58:49;;;;;;;6.67;5.90;;;;;;;11.15;65.06;101103.53;1719654;82;21030;-42
2021/04/22 06:01:17;;;;;;;5.95;5.45;;;;;;;11.20;65.18;101109.52;1719620;83;20995;-42
2021/04/22 06:03:45;;;;;;;8.90;5.92;;;;;;;11.30;65.76;101112.03;1719570;83;21050;-42
2021/04/22 06:06:12;;;;;;;9.30;6.08;;;;;;;11.46;65.28;101107.06;1719639;83;21443;-42
2021/04/22 06:08:41;;;;;;;7.22;5.22;;;;;;;11.62;65.09;101110.78;1719690;83;21201;-42
2021/04/22 06:11:10;;;;;;;6.83;5.80;;;;;;;11.76;65.03;101108.89;1719729;83;21596;-41
2021/04/22 06:13:38;;;;;;;8.73;6.17;;;;;;;11.88;65.08;101119.97;1719589;83;20955;-43
2021/04/22 06:16:07;;;;;;;14.07;6.20;;;;;;;12.01;64.20;101118.97;1719709;83;21145;-42
2021/04/22 06:18:35;;;;;;;15.15;6.40;;;;;;;12.10;63.17;101118.41;1719642;83;21019;-43
2021/04/22 06:21:03;;;;;;;10.30;5.92;;;;;;;12.19;62.46;101115.67;1719645;83;21211;-42
2021/04/22 06:23:31;;;;;;;15.35;6.60;;;;;;;12.20;62.51;101119.55;1719789;82;21599;-42
2021/04/22 06:25:58;;;;;;;10.90;7.00;;;;;;;12.31;62.88;101115.94;1719639;82;20963;-43
2021/04/22 06:28:26;;;;;;;7.10;5.67;;;;;;;12.42;62.10;101119.66;1719650;83;21034;-40
2021/04/22 06:30:53;;;;;;;5.97;5.40;;;;;;;12.59;61.98;101120.69;1719648;83;21026;-42
2021/04/22 06:33:21;;;;;;;25.20;7.17;;;;;;;12.82;61.88;101120.33;1719651;83;21403;-41
2021/04/22 06:35:49;;;;;;;18.48;6.10;;;;;;;13.06;62.17;101124.21;1719623;83;21018;-42
2021/04/22 06:38:16;;;;;;;24.70;6.92;;;;;;;13.30;61.19;101131.14;1719595;83;21023;-43
2021/04/22 06:40:44;;;;;;;22.55;6.58;;;;;;;13.42;59.72;101126.61;1719610;83;21038;-42
2021/04/22 06:43:13;;;;;;;13.85;6.33;;;;;;;13.52;59.77;101126.02;1719677;83;21071;-43
2021/04/22 06:45:41;;;;;;;26.35;6.70;;;;;;;13.59;58.66;101132.80;1719663;82;22266;-42
2021/04/22 06:48:10;;;;;;;12.45;5.58;;;;;;;13.60;58.61;101129.31;1719615;83;20987;-42
2021/04/22 06:50:38;;;;;;;29.85;6.33;;;;;;;13.67;58.95;101137.86;1719688;83;21023;-42
2021/04/22 06:53:06;;;;;;;8.63;5.80;;;;;;;13.79;59.31;101137.16;1719599;82;20959;-41
2021/04/22 06:55:34;;;;;;;7.78;5.60;;;;;;;13.88;58.25;101136.54;1719717;83;21010;-42
2021/04/22 06:58:03;;;;;;;18.45;6.83;;;;;;;14.01;58.42;101137.97;1719634;82;21352;-42
2021/04/22 07:00:35;;;;;;;10.05;5.83;;;;;;;14.20;58.84;101134.53;1719701;83;21484;-44
2021/04/22 07:03:05;;;;;;;19.23;6.62;;;;;;;14.38;58.39;101132.37;1719637;82;21548;-43
2021/04/22 07:05:33;;;;;;;12.98;5.72;;;;;;;14.58;57.24;101135.82;1719578;83;21082;-42
2021/04/22 07:08:01;;;;;;;8.73;5.83;;;;;;;14.65;57.27;101135.20;1719684;83;21011;-42
2021/04/22 07:10:29;;;;;;;8.15;5.85;;;;;;;14.80;57.11;101138.77;1719635;83;21399;-42
2021/04/22 07:12:56;;;;;;;21.87;6.42;;;;;;;15.03;56.41;101141.67;1719476;83;21018;-42
2021/04/22 07:15:24;;;;;;;12.13;5.53;;;;;;;15.03;55.25;101145.58;1719642;83;21039;-41
2021/04/22 07:17:53;;;;;;;8.20;5.85;;;;;;;15.06;55.14;101141.62;1719011;83;20967;-41
2021/04/22 07:20:22;;;;;;;14.30;6.47;;;;;;;15.18;55.22;101140.44;1719771;82;20959;-41
2021/04/22 07:22:56;;;;;;;8.10;5.50;;;;;;;15.38;55.57;101145.94;1719690;83;21285;-42
2021/04/22 07:25:25;;;;;;;19.48;6.85;;;;;;;15.52;56.00;101146.02;1719644;83;21030;-41
2021/04/22 07:27:53;;;;;;;6.87;5.85;;;;;;;15.69;54.48;101142.92;1719752;82;20959;-40
2021/04/22 07:30:24;;;;;;;12.65;6.62;;;;;;;15.80;54.29;101150.00;1719724;83;21038;-40
2021/04/22 07:32:51;;;;;;;16.12;5.67;;;;;;;15.87;53.70;101151.13;1719805;82;20951;-42
2021/04/22 07:35:19;;;;;;;30.02;5.85;;;;;;;16.04;53.41;101150.64;1707013;83;21395;-42
2021/04/22 07:37:48;;;;;;;22.45;7.00;;;;;;;16.21;53.84;101148.38;1706174;84;21076;-41
2021/04/22 07:40:22;;;;;;;11.25;6.53;;;;;;;16.30;52.46;101147.24;1706348;83;21580;-41
2021/04/22 07:42:51;;;;;;;11.30;6.53;;;;;;;16.41;52.81;101146.03;1706229;84;21023;-42
2021/04/22 07:45:22;;;;;;;7.08;6.25;;;;;;;16.52;52.50;101146.09;1706358;84;21026;-41
2021/04/22 07:47:50;;;;;;;9.88;6.53;;;;;;;16.57;52.15;101148.56;1706254;84;21383;-42
2021/04/22 07:50:19;;;;;;;24.63;7.50;;;;;;;16.66;51.57;101140.84;1706184;84;21631;-40
2021/04/22 07:52:49;;;;;;;10.05;5.78;;;;;;;16.82;50.35;101146.44;1706141;82;20952;-42
2021/04/22 07:55:22;;;;;;;10.32;6.05;;;;;;;16.88;50.26;101144.92;1706169;82;20987;-42
2021/04/22 07:57:50;;;;;;;69.72;8.25;;;;;;;17.05;50.94;101148.73;1706235;84;21019;-43
2021/04/22 08:00:19;;;;;;;20.65;5.67;;;;;;;17.22;50.04;101150.78;1706243;82;21387;-42
2021/04/22 08:02:48;;;;;;;12.73;5.97;;;;;;;17.26;50.58;101155.43;1706231;82;21011;-43
2021/04/22 08:05:17;;;;;;;15.25;5.75;;;;;;;17.44;49.93;101146.93;1706309;84;21217;-43
2021/04/22 08:07:47;;;;;;;19.85;6.67;;;;;;;17.51;48.48;101148.41;1703582;84;21023;-43
2021/04/22 08:10:18;;;;;;;16.07;5.50;;;;;;;17.48;49.09;101148.99;1706123;84;21047;-43
2021/04/22 08:12:49;;;;;;;14.55;5.20;;;;;;;17.55;48.15;101148.29;1706205;84;22076;-41
2021/04/22 08:15:17;;;;;;;47.08;6.87;;;;;;;17.62;47.59;101152.41;1706107;84;21023;-42
2021/04/22 08:17:45;;;;;;;24.25;5.03;;;;;;;17.69;47.52;101153.05;1706303;84;21552;-43
2021/04/22 08:20:20;;;;;;;42.85;5.70;;;;;;;17.65;47.66;101152.30;1706150;84;21177;-43
2021/04/22 08:22:48;;;;;;;6.03;4.25;;;;;;;17.69;46.45;101154.35;1706365;84;20940;-43
2021/04/22 08:25:21;;;;;;;7.40;3.80;;;;;;;17.66;46.28;101154.84;1706201;83;22274;-43
2021/04/22 08:27:50;;;;;;;6.50;4.00;;;;;;;17.74;47.37;101155.03;1706126;83;21181;-42
2021/04/22 08:30:22;;;;;;;23.90;5.58;;;;;;;17.93;45.83;101148.63;1706291;84;21629;-42
2021/04/22 08:32:50;;;;;;;43.40;4.40;;;;;;;18.12;43.90;101143.55;1706233;84;21398;-43
2021/04/22 08:35:17;;;;;;;12.43;3.40;;;;;;;17.88;45.77;101152.72;1712444;82;21046;-43
2021/04/22 08:37:47;;;;;;;6.60;3.27;;;;;;;18.08;46.74;101147.21;1714072;83;21376;-43
2021/04/22 08:40:15;;;;;;;32.80;4.03;;;;;;;18.37;44.60;101141.27;1714020;83;21054;-44
2021/04/22 08:42:42;;;;;;;19.57;3.65;;;;;;;18.55;42.66;101146.20;1714102;83;21615;-43
2021/04/22 08:45:12;;;;;;;59.85;5.08;;;;;;;18.61;43.42;101145.11;1714034;83;21038;-43
2021/04/22 08:47:40;;;;;;;10.85;3.87;;;;;;;18.65;42.35;101145.37;1714103;83;21026;-43
2021/04/22 08:50:16;;;;;;;7.78;3.15;;;;;;;18.50;42.66;101141.63;1714041;83;21214;-42
2021/04/22 08:52:49;;;;;;;5.12;3.22;;;;;;;18.49;42.65;101142.09;1714010;83;21587;-42
2021/04/22 08:55:19;;;;;;;14.35;3.30;;;;;;;18.64;42.00;101143.67;1714052;82;21154;-44
2021/04/22 08:57:47;;;;;;;81.50;5.10;;;;;;;18.47;40.05;101142.62;1714144;82;21556;-44
2021/04/22 09:00:18;;;;;;;29.85;4.05;;;;;;;17.90;41.96;101144.82;1714099;83;21050;-45
2021/04/22 09:02:46;;;;;;;14.75;3.17;;;;;;;17.88;41.31;101145.34;1714056;82;21383;-40
2021/04/22 09:05:16;;;;;;;14.58;3.35;;;;;;;18.02;41.62;101133.05;1714024;82;20979;-42
2021/04/22 09:07:45;;;;;;;13.32;2.42;;;;;;;18.22;40.41;101134.87;1714077;83;21544;-43
2021/04/22 09:10:16;;;;;;;4.65;2.58;;;;;;;18.35;39.52;101134.80;1714003;82;21264;-43
2021/04/22 09:13:08;;;;;;;3.85;2.27;;;;;;;18.28;39.60;101134.63;1713987;83;21061;-44
2021/04/22 09:15:37;;;;;;;4.10;2.98;;;;;;;18.18;38.88;101135.92;1714052;82;21430;-43
2021/04/22 09:18:17;;;;;;;5.90;2.22;;;;;;;17.85;37.89;101132.37;1714009;83;21643;-43
2021/04/22 09:20:47;;;;;;;2.98;2.27;;;;;;;17.44;36.95;101130.39;1714093;83;21181;-43
2021/04/22 09:23:25;;;;;;;2.20;2.02;;;;;;;17.14;38.47;101135.35;1714040;83;21109;-43
2021/04/22 09:26:00;;;;;;;3.80;1.90;;;;;;;17.06;38.80;101127.77;1714077;82;21023;-44
2021/04/22 09:28:39;;;;;;;4.17;1.80;;;;;;;16.92;38.40;101126.91;1714191;83;21303;-44
2021/04/22 09:31:07;;;;;;;7.25;2.02;;;;;;;16.91;37.11;101126.95;1714003;83;20959;-43
2021/04/22 09:33:37;;;;;;;11.05;2.08;;;;;;;16.95;38.29;101124.66;1714056;82;21062;-43
2021/04/22 09:36:14;;;;;;;15.30;2.62;;;;;;;16.93;38.75;101129.09;1719567;83;21595;-43
2021/04/22 09:38:41;;;;;;;8.78;3.22;;;;;;;16.98;39.91;101118.45;1719775;83;21077;-45
2021/04/22 09:41:14;;;;;;;5.85;2.20;;;;;;;17.41;40.78;101117.39;1716999;83;21382;-44
2021/04/22 09:43:42;;;;;;;28.62;2.10;;;;;;;18.00;39.67;101116.04;1719548;83;22241;-43
2021/04/22 09:46:20;;;;;;;3.08;1.47;;;;;;;18.60;37.93;101110.20;1719647;83;21085;-43
2021/04/22 09:48:48;;;;;;;1.98;1.80;;;;;;;19.07;35.95;101112.16;1719652;82;21026;-43
2021/04/22 09:51:31;;;;;;;4.97;1.90;;;;;;;19.35;33.32;101105.24;1719726;83;20999;-41
2021/04/22 09:54:08;;;;;;;3.55;1.98;;;;;;;19.31;34.70;101102.81;1719628;83;21389;-42
2021/04/22 09:56:55;;;;;;;5.65;1.60;;;;;;;19.45;34.39;101108.75;1708456;82;21010;-42
2021/04/22 09:59:25;;;;;;;6.25;2.25;;;;;;;19.41;35.87;101101.94;1719667;83;21030;-42
2021/04/22 10:02:02;;;;;;;3.22;1.95;;;;;;;19.26;35.37;101095.61;1719654;83;21579;-42
2021/04/22 10:04:43;;;;;;;2.02;1.55;;;;;;;19.18;34.55;101100.75;1719646;82;20907;-43
2021/04/22 10:07:27;;;;;;;16.10;2.47;;;;;;;19.10;35.45;101098.94;1719678;83;21376;-43
2021/04/22 10:10:01;;;;;;;3.00;2.30;;;;;;;19.34;34.25;101101.39;1719535;83;21011;-42
2021/04/22 10:12:31;;;;;;;7.80;2.22;;;;;;;18.98;36.01;101099.43;1719720;83;21568;-42
2021/04/22 10:15:22;;;;;;;19.48;2.35;;;;;;;18.55;32.49;101098.19;1719604;83;20958;-42
2021/04/22 10:17:54;;;;;;;27.60;3.30;;;;;;;18.19;35.68;101103.56;1719318;83;21638;-42
2021/04/22 10:20:23;;;;;;;14.05;2.35;;;;;;;18.40;34.79;101100.99;1719677;83;21382;-41
2021/04/22 10:22:53;;;;;;;46.50;3.80;;;;;;;18.49;34.28;101092.73;1719688;83;21468;-42
2021/04/22 10:25:29;;;;;;;43.63;2.42;;;;;;;18.73;34.62;101100.48;1719644;83;21061;-43
2021/04/22 10:28:14;;;;;;;125.55;5.95;;;;;;;18.92;34.80;101095.30;1719712;83;21591;-42
2021/04/22 10:30:45;;;;;;;5.45;1.55;;;;;;;19.44;33.88;101089.54;1694056;83;21027;-43
2021/04/22 10:33:13;;;;;;;92.57;5.00;;;;;;;20.00;33.01;101096.16;1719687;83;21830;-43
2021/04/22 10:35:42;;;;;;;124.30;5.25;;;;;;;20.29;33.96;101086.48;1710568;83;20956;-43
2021/04/22 10:38:11;;;;;;;71.70;4.90;;;;;;;20.66;33.27;101093.83;1706191;84;21552;-44
2021/04/22 10:40:42;;;;;;;9.30;2.02;;;;;;;20.95;33.08;101093.68;1706105;84;20900;-42
2021/04/22 10:43:24;;;;;;;49.08;2.67;;;;;;;20.91;30.99;101089.52;1706178;84;21493;-42
2021/04/22 10:45:56;;;;;;;11.85;2.02;;;;;;;20.64;32.11;101086.03;1706143;84;21389;-42
2021/04/22 10:48:24;;;;;;;37.15;3.05;;;;;;;20.53;32.22;101087.89;1706106;83;21022;-43
2021/04/22 10:50:53;;;;;;;16.77;2.30;;;;;;;20.26;32.13;101088.79;1706107;84;20934;-43
2021/04/22 10:53:23;;;;;;;127.70;7.50;;;;;;;19.81;31.74;101093.06;1706066;82;20904;-44
2021/04/22 10:55:53;;;;;;;48.10;2.87;;;;;;;19.43;33.03;101087.84;1706364;84;21477;-43
2021/04/22 10:58:30;;;;;;;187.65;8.65;;;;;;;19.16;32.79;101088.16;1706354;84;21451;-43
2021/04/22 11:01:00;;;;;;;85.15;4.53;;;;;;;19.14;33.52;101089.14;1706270;84;21082;-43
2021/04/22 11:03:40;;;;;;;42.48;3.60;;;;;;;19.08;34.09;101087.19;1706280;82;22778;-42
2021/04/22 11:06:15;;;;;;;101.12;5.03;;;;;;;18.89;33.48;101087.12;1706289;84;21607;-41
2021/04/22 11:08:51;;;;;;;89.77;6.22;;;;;;;18.61;34.41;101085.69;1706650;84;21038;-43
2021/04/22 11:11:28;;;;;;;195.15;7.97;;;;;;;18.39;34.62;101088.33;1702693;82;21209;-42
2021/04/22 11:14:15;;;;;;;143.32;6.47;;;;;;;18.28;35.42;101087.94;1706201;84;20955;-43
2021/04/22 11:16:53;;;;;;;297.27;16.40;;;;;;;18.26;35.46;101085.84;1706329;84;21027;-42
2021/04/22 11:19:33;;;;;;;30.00;2.92;;;;;;;18.18;35.75;101086.98;1706170;83;21020;-44
2021/04/22 11:22:20;;;;;;;40.67;2.70;;;;;;;18.13;34.87;101084.17;1706298;84;21085;-43
2021/04/22 11:25:00;;;;;;;209.65;10.95;;;;;;;17.89;34.79;101082.41;1706349;84;22262;-42
2021/04/22 11:27:32;;;;;;;71.53;4.15;;;;;;;17.74;36.01;101085.17;1705771;84;20995;-44
2021/04/22 11:30:06;;;;;;;121.17;6.10;;;;;;;17.71;35.05;101086.61;1706236;84;21027;-44
2021/04/22 11:32:42;;;;;;;41.83;2.65;;;;;;;17.67;36.62;101083.25;1706232;84;20951;-42
2021/04/22 11:35:18;;;;;;;142.05;6.87;;;;;;;17.70;37.25;101084.91;1710376;83;21078;-44